createdAt,value
2019-03-03T00:01:54.642Z,51.33
2019-03-03T00:04:24.784Z,53.00
2019-03-03T00:06:54.283Z,48.33
2019-03-03T00:09:23.747Z,51.87
2019-03-03T00:11:52.942Z,51.37
2019-03-03T00:14:23.323Z,52.53
2019-03-03T00:16:53.215Z,51.20
2019-03-03T00:19:23.020Z,54.67
2019-03-03T00:21:52.496Z,53.10
2019-03-03T00:24:22.722Z,51.50
2019-03-03T00:26:52.260Z,50.77
2019-03-03T00:29:21.727Z,49.87
2019-03-03T00:31:51.178Z,56.73
2019-03-03T00:34:20.984Z,50.37
2019-03-03T00:37:15.026Z,51.03
2019-03-03T00:40:09.310Z,53.60
2019-03-03T00:42:43.781Z,50.60
2019-03-03T00:45:32.615Z,53.13
2019-03-03T00:48:11.576Z,51.87
2019-03-03T00:51:00.589Z,51.47
2019-03-03T00:53:42.795Z,50.90
2019-03-03T00:56:24.077Z,49.10
2019-03-03T00:59:09.564Z,52.03
2019-03-03T01:01:44.496Z,50.63
2019-03-03T01:04:26.034Z,51.30
2019-03-03T01:07:10.873Z,51.03
2019-03-03T01:09:50.905Z,51.37
2019-03-03T01:12:35.845Z,51.17
2019-03-03T01:15:31.588Z,49.10
2019-03-03T01:18:08.281Z,46.77
2019-03-03T01:20:52.043Z,48.97
2019-03-03T01:23:48.842Z,48.63
2019-03-03T01:26:18.396Z,48.27
2019-03-03T01:28:47.972Z,45.07
2019-03-03T01:31:17.805Z,46.10
2019-03-03T01:33:47.323Z,46.47
2019-03-03T01:36:16.741Z,44.80
2019-03-03T01:38:46.550Z,46.40
2019-03-03T01:41:15.711Z,44.87
2019-03-03T01:43:45.124Z,46.20
2019-03-03T01:46:14.619Z,45.53
2019-03-03T01:48:44.788Z,43.93
2019-03-03T01:51:14.704Z,43.87
2019-03-03T01:53:44.128Z,43.30
2019-03-03T01:56:13.244Z,40.90
2019-03-03T01:58:42.756Z,40.23
2019-03-03T02:01:12.542Z,40.13
2019-03-03T02:03:41.984Z,38.57
2019-03-03T02:06:11.480Z,36.87
2019-03-03T02:08:40.975Z,38.50
2019-03-03T02:11:11.093Z,36.10
2019-03-03T02:13:40.183Z,36.70
2019-03-03T02:16:09.804Z,36.33
2019-03-03T02:18:39.247Z,34.57
2019-03-03T02:21:08.721Z,32.87
2019-03-03T02:23:37.860Z,33.03
2019-03-03T02:26:07.950Z,33.60
2019-03-03T02:28:37.759Z,32.13
2019-03-03T02:31:07.522Z,32.50
2019-03-03T02:33:36.896Z,31.50
2019-03-03T02:36:06.037Z,29.60
2019-03-03T02:38:35.481Z,30.07
2019-03-03T02:41:05.293Z,28.43
2019-03-03T02:43:39.767Z,30.90
2019-03-03T02:46:10.269Z,32.10
2019-03-03T02:48:39.775Z,33.47
2019-03-03T02:51:08.913Z,34.37
2019-03-03T02:53:38.786Z,33.73
2019-03-03T02:56:08.600Z,33.57
2019-03-03T02:58:38.428Z,30.67
2019-03-03T03:01:33.044Z,33.30
2019-03-03T03:04:02.479Z,29.97
2019-03-03T03:06:54.524Z,29.30
2019-03-03T03:09:27.236Z,29.33
2019-03-03T03:12:11.527Z,30.40
2019-03-03T03:14:59.182Z,28.67
2019-03-03T03:17:56.431Z,28.53
2019-03-03T03:20:54.029Z,28.93
2019-03-03T03:23:34.145Z,29.53
2019-03-03T03:26:27.105Z,29.23
2019-03-03T03:29:27.938Z,28.50
2019-03-03T03:32:16.490Z,28.90
2019-03-03T03:34:50.958Z,29.47
2019-03-03T03:37:29.911Z,27.97
2019-03-03T03:40:27.232Z,30.97
2019-03-03T03:43:12.803Z,28.07
2019-03-03T03:46:07.590Z,27.57
2019-03-03T03:48:56.034Z,25.60
2019-03-03T03:51:46.966Z,27.17
2019-03-03T03:54:53.916Z,26.33
2019-03-03T03:57:48.956Z,26.70
2019-03-03T04:00:37.316Z,27.30
2019-03-03T04:03:25.669Z,26.63
2019-03-03T04:06:15.894Z,26.73
2019-03-03T04:08:51.394Z,25.93
2019-03-03T04:11:52.231Z,25.50
2019-03-03T04:14:32.146Z,26.67
2019-03-03T04:17:29.744Z,23.93
2019-03-03T04:20:27.154Z,26.10
2019-03-03T04:23:23.068Z,25.77
2019-03-03T04:26:09.981Z,24.43
2019-03-03T04:28:52.994Z,24.30
2019-03-03T04:31:31.581Z,23.43
2019-03-03T04:34:11.889Z,24.10
2019-03-03T04:36:53.552Z,23.70
2019-03-03T04:39:33.466Z,24.20
2019-03-03T04:42:30.373Z,24.60
2019-03-03T04:45:09.794Z,26.77
2019-03-03T04:47:56.805Z,26.43
2019-03-03T04:50:45.688Z,26.17
2019-03-03T04:53:21.545Z,25.60
2019-03-03T04:55:57.664Z,26.57
2019-03-03T04:59:04.004Z,26.73
2019-03-03T05:01:50.796Z,28.23
2019-03-03T05:04:27.888Z,25.93
2019-03-03T05:07:07.108Z,27.50
2019-03-03T05:09:42.882Z,25.60
2019-03-03T05:12:49.382Z,27.53
2019-03-03T05:15:53.923Z,29.00
2019-03-03T05:18:44.917Z,29.07
2019-03-03T05:21:14.025Z,27.67
2019-03-03T05:23:43.836Z,27.20
2019-03-03T05:26:13.593Z,26.70
2019-03-03T05:28:43.471Z,28.27
2019-03-03T05:31:12.585Z,28.43
2019-03-03T05:33:42.121Z,29.47
2019-03-03T05:36:12.247Z,30.00
2019-03-03T05:38:42.512Z,27.13
2019-03-03T05:41:12.390Z,27.20
2019-03-03T05:43:42.271Z,25.33
2019-03-03T05:46:12.124Z,26.67
2019-03-03T05:48:41.892Z,25.60
2019-03-03T05:51:11.344Z,25.13
2019-03-03T05:53:40.763Z,27.07
2019-03-03T05:56:10.265Z,27.73
2019-03-03T05:58:39.705Z,31.53
2019-03-03T06:01:09.478Z,31.60
2019-03-03T06:03:39.489Z,32.93
2019-03-03T06:06:08.988Z,33.67
2019-03-03T06:08:38.485Z,32.80
2019-03-03T06:11:07.628Z,31.30
2019-03-03T06:13:37.379Z,30.90
2019-03-03T06:16:06.597Z,30.97
2019-03-03T06:18:36.423Z,30.80
2019-03-03T06:21:05.829Z,31.27
2019-03-03T06:23:35.615Z,29.83
2019-03-03T06:26:05.142Z,30.73
2019-03-03T06:28:34.210Z,32.33
2019-03-03T06:31:03.725Z,31.03
2019-03-03T06:33:33.313Z,31.20
2019-03-03T06:36:03.104Z,34.00
2019-03-03T06:38:32.596Z,32.70
2019-03-03T06:41:02.536Z,33.77
2019-03-03T06:43:32.045Z,33.70
2019-03-03T06:46:01.584Z,34.07
2019-03-03T06:48:31.463Z,32.47
2019-03-03T06:51:00.551Z,33.97
2019-03-03T06:53:30.051Z,35.07
2019-03-03T06:55:59.140Z,33.23
2019-03-03T06:58:28.242Z,32.67
2019-03-03T07:00:58.071Z,35.20
2019-03-03T07:03:28.208Z,35.17
2019-03-03T07:05:58.024Z,35.97
2019-03-03T07:08:27.507Z,36.07
2019-03-03T07:10:57.979Z,33.77
2019-03-03T07:13:27.458Z,33.00
2019-03-03T07:15:57.965Z,33.63
2019-03-03T07:18:27.812Z,32.27
2019-03-03T07:20:58.156Z,31.97
2019-03-03T07:23:28.042Z,30.47
2019-03-03T07:25:57.433Z,28.83
2019-03-03T07:28:27.262Z,27.67
2019-03-03T07:30:57.104Z,28.93
2019-03-03T07:33:30.004Z,26.83
2019-03-03T07:35:59.852Z,28.73
2019-03-03T07:38:29.630Z,27.80
2019-03-03T07:40:59.112Z,26.93
2019-03-03T07:43:28.291Z,26.43
2019-03-03T07:45:58.041Z,26.90
2019-03-03T07:48:27.764Z,27.53
2019-03-03T07:50:56.944Z,26.93
2019-03-03T07:53:26.109Z,26.37
2019-03-03T07:55:55.336Z,25.77
2019-03-03T07:58:24.736Z,25.53
2019-03-03T08:00:54.251Z,29.50
2019-03-03T08:03:24.380Z,26.37
2019-03-03T08:05:53.807Z,26.63
2019-03-03T08:08:23.291Z,25.87
2019-03-03T08:10:52.895Z,26.20
2019-03-03T08:13:22.753Z,31.63
2019-03-03T08:15:51.942Z,32.73
2019-03-03T08:18:21.816Z,44.00
2019-03-03T08:20:51.281Z,44.10
2019-03-03T08:23:20.791Z,52.10
2019-03-03T08:25:50.686Z,60.67
2019-03-03T08:28:20.210Z,40.67
2019-03-03T08:30:49.720Z,40.10
2019-03-03T08:33:19.251Z,33.10
2019-03-03T08:35:48.647Z,32.80
2019-03-03T08:38:18.586Z,25.93
2019-03-03T08:40:48.076Z,29.30
2019-03-03T08:43:39.002Z,34.20
2019-03-03T08:46:36.830Z,34.53
2019-03-03T08:49:20.307Z,26.33
2019-03-03T08:52:15.407Z,30.97
2019-03-03T08:55:09.307Z,29.10
2019-03-03T08:58:13.251Z,27.43
2019-03-03T09:00:49.962Z,25.33
2019-03-03T09:03:30.081Z,25.83
2019-03-03T09:06:21.507Z,24.07
2019-03-03T09:08:57.205Z,23.63
2019-03-03T09:11:41.556Z,24.23
2019-03-03T09:14:35.611Z,22.87
2019-03-03T09:17:13.340Z,23.57
2019-03-03T09:20:00.335Z,23.33
2019-03-03T09:22:39.129Z,24.30
2019-03-03T09:25:28.309Z,21.57
2019-03-03T09:28:19.719Z,22.70
2019-03-03T09:31:06.867Z,21.47
2019-03-03T09:34:01.160Z,21.27
2019-03-03T09:36:49.220Z,22.13
2019-03-03T09:39:36.338Z,20.57
2019-03-03T09:42:33.410Z,21.07
2019-03-03T09:45:20.509Z,20.37
2019-03-03T09:48:08.641Z,20.10
2019-03-03T09:51:15.410Z,19.57
2019-03-03T09:54:09.331Z,21.70
2019-03-03T09:57:00.680Z,20.40
2019-03-03T09:59:39.459Z,20.40
2019-03-03T10:02:15.839Z,20.70
2019-03-03T10:04:51.751Z,19.83
2019-03-03T10:07:55.622Z,21.90
2019-03-03T10:10:44.580Z,23.10
2019-03-03T10:13:20.819Z,22.73
2019-03-03T10:16:02.590Z,21.30
2019-03-03T10:18:39.716Z,21.47
2019-03-03T10:21:17.844Z,21.47
2019-03-03T10:24:05.449Z,21.70
2019-03-03T10:26:47.692Z,21.77
2019-03-03T10:29:33.795Z,21.23
2019-03-03T10:32:15.793Z,20.83
2019-03-03T10:35:07.489Z,21.83
2019-03-03T10:38:07.919Z,21.83
2019-03-03T10:40:43.783Z,18.90
2019-03-03T10:43:32.348Z,19.73
2019-03-03T10:46:22.958Z,20.17
2019-03-03T10:48:57.887Z,19.97
2019-03-03T10:51:51.884Z,18.77
2019-03-03T10:54:52.452Z,18.80
2019-03-03T10:57:40.788Z,17.90
2019-03-03T11:00:38.743Z,16.83
2019-03-03T11:03:36.337Z,15.80
2019-03-03T11:06:24.220Z,16.00
2019-03-03T11:09:15.601Z,18.03
2019-03-03T11:11:52.874Z,30.23
2019-03-03T11:14:28.530Z,30.70
2019-03-03T11:17:06.321Z,32.60
2019-03-03T11:20:03.392Z,31.03
2019-03-03T11:22:57.105Z,29.97
2019-03-03T11:25:54.739Z,37.10
2019-03-03T11:28:42.618Z,24.70
2019-03-03T11:31:29.415Z,37.77
2019-03-03T11:34:17.585Z,24.10
2019-03-03T11:36:52.649Z,29.30
2019-03-03T11:39:50.125Z,19.30
2019-03-03T11:42:24.365Z,23.07
2019-03-03T11:45:16.178Z,22.40
2019-03-03T11:48:04.154Z,14.87
2019-03-03T11:50:46.328Z,16.93
2019-03-03T11:53:30.731Z,16.90
2019-03-03T11:56:24.798Z,17.63
2019-03-03T11:59:12.961Z,17.70
2019-03-03T12:02:13.030Z,16.20
2019-03-03T12:05:00.335Z,16.27
2019-03-03T12:07:38.291Z,16.73
2019-03-03T12:10:13.964Z,16.37
2019-03-03T12:13:07.985Z,16.70
2019-03-03T12:15:56.121Z,14.53
2019-03-03T12:18:36.587Z,15.03
2019-03-03T12:21:31.159Z,14.83
2019-03-03T12:24:08.017Z,15.40
2019-03-03T12:26:55.311Z,16.07
2019-03-03T12:29:42.794Z,16.37
2019-03-03T12:32:20.785Z,16.83
2019-03-03T12:35:08.027Z,17.47
2019-03-03T12:38:05.032Z,16.53
2019-03-03T12:40:44.401Z,15.17
2019-03-03T12:43:25.312Z,16.13
2019-03-03T12:46:19.032Z,13.80
2019-03-03T12:48:57.681Z,12.00
2019-03-03T12:51:59.057Z,12.43
2019-03-03T12:54:50.558Z,11.83
2019-03-03T12:57:37.100Z,10.83
2019-03-03T13:00:15.971Z,10.37
2019-03-03T13:03:03.626Z,10.27
2019-03-03T13:06:10.890Z,9.63
2019-03-03T13:09:04.883Z,10.57
2019-03-03T13:11:59.548Z,11.37
2019-03-03T13:14:53.816Z,14.87
2019-03-03T13:17:51.109Z,14.20
2019-03-03T13:20:28.312Z,13.50
2019-03-03T13:23:09.404Z,13.60
2019-03-03T13:25:54.762Z,15.00
2019-03-03T13:28:52.129Z,16.07
2019-03-03T13:31:29.966Z,14.97
2019-03-03T13:34:25.126Z,15.53
2019-03-03T13:37:25.636Z,15.60
2019-03-03T13:40:09.968Z,16.63
2019-03-03T13:42:48.708Z,16.90
2019-03-03T13:45:19.982Z,15.13
2019-03-03T13:47:51.302Z,14.43
2019-03-03T13:50:20.895Z,15.67
2019-03-03T13:52:50.116Z,15.90
2019-03-03T13:55:19.768Z,16.60
2019-03-03T13:57:50.015Z,16.23
2019-03-03T14:00:20.936Z,15.63
2019-03-03T14:02:50.597Z,15.57
2019-03-03T14:05:21.515Z,14.90
2019-03-03T14:07:51.654Z,13.60
2019-03-03T14:10:21.144Z,14.90
2019-03-03T14:12:50.390Z,14.63
2019-03-03T14:15:20.106Z,13.07
2019-03-03T14:17:49.421Z,13.07
2019-03-03T14:20:21.163Z,14.13
2019-03-03T14:22:50.815Z,15.57
2019-03-03T14:25:20.777Z,16.57
2019-03-03T14:27:50.396Z,21.97
2019-03-03T14:30:22.540Z,22.43
2019-03-03T14:32:52.007Z,16.80
2019-03-03T14:35:21.411Z,27.50
2019-03-03T14:37:51.247Z,24.47
2019-03-03T14:40:21.985Z,35.30
2019-03-03T14:42:51.656Z,36.97
2019-03-03T14:45:21.729Z,39.77
2019-03-03T14:47:51.422Z,28.70
2019-03-03T14:50:21.071Z,44.50
2019-03-03T14:52:50.506Z,18.77
2019-03-03T14:55:20.692Z,30.23
2019-03-03T14:57:50.627Z,18.53
2019-03-03T15:00:27.257Z,19.53
2019-03-03T15:02:57.670Z,17.93
2019-03-03T15:05:26.994Z,17.40
2019-03-03T15:07:56.494Z,15.40
2019-03-03T15:10:26.626Z,14.87
2019-03-03T15:12:57.274Z,14.50
2019-03-03T15:15:27.878Z,13.20
2019-03-03T15:17:57.236Z,12.47
2019-03-03T15:20:27.244Z,12.57
2019-03-03T15:22:57.182Z,12.80
2019-03-03T15:25:27.112Z,12.73
2019-03-03T15:27:56.326Z,12.67
2019-03-03T15:30:26.462Z,13.00
2019-03-03T15:32:56.262Z,12.87
2019-03-03T15:35:25.920Z,12.73
2019-03-03T15:37:55.099Z,12.80
2019-03-03T15:40:24.484Z,12.20
2019-03-03T15:42:54.615Z,12.90
2019-03-03T15:45:25.174Z,14.00
2019-03-03T15:47:55.095Z,14.73
2019-03-03T15:50:24.731Z,13.47
2019-03-03T15:52:53.988Z,13.30
2019-03-03T15:55:24.343Z,13.00
2019-03-03T15:57:54.105Z,13.47
2019-03-03T16:00:25.858Z,14.30
2019-03-03T16:02:55.907Z,12.87
2019-03-03T16:05:25.439Z,12.30
2019-03-03T16:07:54.802Z,11.27
2019-03-03T16:10:24.670Z,11.33
2019-03-03T16:12:54.681Z,11.10
2019-03-03T16:15:25.165Z,10.83
2019-03-03T16:17:54.665Z,11.93
2019-03-03T16:20:24.710Z,11.07
2019-03-03T16:22:54.836Z,10.37
2019-03-03T16:25:24.159Z,10.70
2019-03-03T16:27:54.083Z,9.53
2019-03-03T16:30:23.564Z,10.30
2019-03-03T16:32:53.573Z,10.53
2019-03-03T16:35:23.757Z,12.97
2019-03-03T16:37:53.956Z,13.27
2019-03-03T16:40:23.484Z,12.43
2019-03-03T16:42:53.561Z,12.20
2019-03-03T16:45:22.784Z,12.37
2019-03-03T16:47:52.301Z,12.00
2019-03-03T16:50:22.001Z,13.17
2019-03-03T16:52:52.090Z,12.73
2019-03-03T16:55:22.133Z,12.33
2019-03-03T16:57:51.670Z,12.97
2019-03-03T17:00:21.546Z,14.97
2019-03-03T17:02:50.732Z,15.63
2019-03-03T17:05:21.383Z,19.37
2019-03-03T17:07:51.099Z,21.00
2019-03-03T17:10:21.955Z,23.30
2019-03-03T17:12:52.039Z,24.80
2019-03-03T17:15:22.218Z,25.00
2019-03-03T17:17:51.967Z,26.67
2019-03-03T17:20:22.161Z,23.23
2019-03-03T17:22:52.056Z,24.70
2019-03-03T17:25:22.226Z,21.50
2019-03-03T17:27:51.726Z,21.13
2019-03-03T17:30:22.282Z,19.30
2019-03-03T17:32:51.577Z,18.90
2019-03-03T17:35:22.179Z,18.50
2019-03-03T17:37:51.875Z,19.27
2019-03-03T17:40:22.067Z,18.70
2019-03-03T17:42:51.886Z,17.87
2019-03-03T17:45:21.546Z,19.00
2019-03-03T17:47:51.208Z,18.13
2019-03-03T17:50:21.671Z,19.27
2019-03-03T17:52:51.260Z,19.37
2019-03-03T17:55:21.134Z,18.03
2019-03-03T17:57:50.981Z,17.13
2019-03-03T18:00:22.417Z,15.87
2019-03-03T18:02:52.335Z,16.57
2019-03-03T18:05:22.421Z,16.07
2019-03-03T18:07:51.732Z,16.17
2019-03-03T18:10:21.119Z,16.20
2019-03-03T18:12:53.079Z,15.83
2019-03-03T18:15:24.706Z,16.47
2019-03-03T18:17:54.458Z,16.27
2019-03-03T18:20:23.978Z,16.20
2019-03-03T18:22:53.571Z,16.33
2019-03-03T18:25:23.956Z,15.93
2019-03-03T18:27:54.018Z,16.33
2019-03-03T18:30:24.393Z,15.90
2019-03-03T18:32:54.264Z,17.10
2019-03-03T18:35:23.800Z,15.47
2019-03-03T18:37:53.818Z,15.00
2019-03-03T18:40:23.628Z,14.07
2019-03-03T18:42:53.264Z,14.73
2019-03-03T18:45:22.559Z,13.90
2019-03-03T18:47:52.725Z,13.03
2019-03-03T18:50:23.184Z,12.67
2019-03-03T18:52:53.096Z,12.70
2019-03-03T18:55:22.680Z,11.97
2019-03-03T18:57:52.355Z,11.87
2019-03-03T19:00:24.110Z,11.03
2019-03-03T19:02:54.368Z,11.90
2019-03-03T19:05:24.140Z,11.37
2019-03-03T19:07:53.946Z,11.97
2019-03-03T19:10:25.470Z,12.50
2019-03-03T19:12:55.186Z,10.57
2019-03-03T19:15:24.829Z,10.90
2019-03-03T19:17:54.702Z,10.67
2019-03-03T19:20:26.562Z,9.40
2019-03-03T19:22:56.139Z,9.77
2019-03-03T19:25:25.780Z,10.27
2019-03-03T19:27:55.664Z,9.43
2019-03-03T19:30:25.301Z,10.03
2019-03-03T19:33:02.242Z,10.83
2019-03-03T19:35:31.722Z,11.13
2019-03-03T19:38:01.921Z,10.30
2019-03-03T19:40:31.584Z,11.00
2019-03-03T19:43:01.193Z,11.47
2019-03-03T19:45:32.182Z,10.47
2019-03-03T19:48:01.381Z,10.70
2019-03-03T19:50:31.117Z,11.70
2019-03-03T19:53:00.819Z,10.67
2019-03-03T19:55:30.176Z,10.80
2019-03-03T19:57:59.874Z,10.77
2019-03-03T20:00:35.589Z,11.03
2019-03-03T20:03:02.777Z,10.57
2019-03-03T20:05:32.705Z,10.10
2019-03-03T20:08:02.101Z,10.20
2019-03-03T20:10:33.064Z,10.53
2019-03-03T20:13:02.297Z,10.80
2019-03-03T20:15:32.449Z,9.93
2019-03-03T20:18:01.905Z,10.20
2019-03-03T20:20:31.227Z,10.03
2019-03-03T20:23:00.682Z,9.60
2019-03-03T20:25:30.312Z,9.67
2019-03-03T20:27:59.753Z,9.67
2019-03-03T20:30:29.180Z,9.67
2019-03-03T20:32:59.121Z,9.10
2019-03-03T20:35:28.918Z,10.00
2019-03-03T20:37:58.752Z,9.57
2019-03-03T20:40:29.249Z,9.87
2019-03-03T20:42:58.538Z,9.67
2019-03-03T20:45:28.049Z,9.33
2019-03-03T20:47:57.935Z,9.30
2019-03-03T20:50:27.824Z,8.70
2019-03-03T20:52:57.500Z,9.97
2019-03-03T20:55:27.505Z,9.20
2019-03-03T20:57:57.210Z,9.50
2019-03-03T21:00:26.913Z,9.37
2019-03-03T21:02:56.156Z,9.70
2019-03-03T21:05:26.912Z,9.87
2019-03-03T21:07:56.725Z,9.10
2019-03-03T21:10:26.531Z,9.63
2019-03-03T21:12:56.316Z,10.10
2019-03-03T21:15:26.953Z,10.60
2019-03-03T21:17:56.430Z,11.77
2019-03-03T21:20:26.474Z,10.87
2019-03-03T21:22:56.206Z,11.83
2019-03-03T21:25:26.232Z,11.60
2019-03-03T21:27:56.399Z,11.03
2019-03-03T21:30:26.153Z,11.90
2019-03-03T21:32:56.604Z,11.33
2019-03-03T21:35:26.031Z,10.80
2019-03-03T21:37:55.263Z,10.77
2019-03-03T21:40:25.724Z,12.40
2019-03-03T21:42:57.177Z,11.93
2019-03-03T21:45:26.916Z,10.50
2019-03-03T21:47:56.670Z,11.20
2019-03-03T21:50:26.544Z,12.03
2019-03-03T21:52:56.741Z,11.00
2019-03-03T21:55:26.387Z,11.17
2019-03-03T21:57:55.867Z,12.43
2019-03-03T22:00:30.565Z,11.90
2019-03-03T22:03:00.429Z,11.83
2019-03-03T22:05:30.284Z,10.50
2019-03-03T22:07:59.829Z,11.03
2019-03-03T22:10:33.310Z,11.53
2019-03-03T22:13:05.345Z,10.83
2019-03-03T22:15:34.853Z,10.33
2019-03-03T22:18:04.724Z,9.93
2019-03-03T22:20:34.305Z,9.70
2019-03-03T22:23:04.120Z,9.07
2019-03-03T22:25:33.549Z,9.50
2019-03-03T22:28:03.175Z,9.43
2019-03-03T22:30:33.043Z,8.53
2019-03-03T22:33:03.178Z,8.67
2019-03-03T22:35:33.041Z,8.80
2019-03-03T22:38:03.423Z,8.17
2019-03-03T22:40:32.684Z,8.77
2019-03-03T22:43:02.407Z,8.90
2019-03-03T22:45:31.872Z,9.67
2019-03-03T22:48:01.682Z,9.50
2019-03-03T22:50:31.228Z,9.90
2019-03-03T22:53:00.997Z,9.83
2019-03-03T22:55:35.470Z,9.67
2019-03-03T22:58:05.689Z,9.77
2019-03-03T23:00:50.516Z,9.50
2019-03-03T23:03:33.215Z,9.27
2019-03-03T23:06:32.156Z,10.20
2019-03-03T23:09:41.016Z,8.97
2019-03-03T23:13:01.301Z,9.50
2019-03-03T23:16:11.583Z,8.87
2019-03-03T23:19:24.633Z,8.80
2019-03-03T23:22:24.726Z,8.83
2019-03-03T23:25:37.931Z,8.13
2019-03-03T23:28:07.524Z,8.50
2019-03-03T23:30:36.850Z,9.50
2019-03-03T23:33:06.244Z,8.37
2019-03-03T23:35:35.788Z,8.13
2019-03-03T23:38:05.346Z,7.47
2019-03-03T23:40:34.924Z,7.70
2019-03-03T23:43:04.028Z,6.67
2019-03-03T23:45:33.759Z,7.67
2019-03-03T23:48:03.256Z,7.07
2019-03-03T23:50:32.390Z,6.93
2019-03-03T23:53:02.723Z,6.33
2019-03-03T23:55:32.261Z,6.33
2019-03-03T23:58:01.355Z,6.57
